Time;durP1;ratioP1;P1;durP2;ratioP2;P2;SDS_P1;SDS_P2;PMS_P1;PMS_P2;Temp;Humidity;BMP_temperature;BMP_pressure;BME280_temperature;BME280_humidity;BME280_pressure;Samples;Min_cycle;Max_cycle;Signal;HPM_P1;HPM_P2
2020/12/31 00:01:16;;;;;;;;;;;21.70;53.70;;;;;;5053072;28;1300;-68
2020/12/31 00:03:41;;;;;;;;;;;21.60;53.70;;;;;;5051222;28;1307;-68
2020/12/31 00:06:07;;;;;;;;;;;21.60;53.70;;;;;;5052672;28;1315;-68
2020/12/31 00:08:32;;;;;;;;;;;21.60;53.80;;;;;;5053406;28;1402;-68
2020/12/31 00:10:58;;;;;;;;;;;21.60;53.80;;;;;;5053348;28;1362;-68
2020/12/31 00:13:23;;;;;;;;;;;21.60;53.80;;;;;;5052757;28;1898;-68
2020/12/31 00:15:49;;;;;;;;;;;21.60;53.90;;;;;;5053228;28;1383;-67
2020/12/31 00:18:14;;;;;;;;;;;21.60;53.90;;;;;;5052907;28;1264;-68
2020/12/31 00:20:40;;;;;;;;;;;21.60;53.90;;;;;;5053215;28;1167;-68
2020/12/31 00:23:05;;;;;;;;;;;21.60;54.00;;;;;;5052977;28;1328;-68
2020/12/31 00:25:31;;;;;;;;;;;21.50;53.90;;;;;;5052214;28;1284;-68
2020/12/31 00:27:56;;;;;;;;;;;21.50;53.90;;;;;;5052445;28;1386;-69
2020/12/31 00:30:22;;;;;;;;;;;21.50;54.00;;;;;;5052834;28;1222;-68
2020/12/31 00:32:47;;;;;;;;;;;21.50;54.00;;;;;;5052542;28;1973;-68
2020/12/31 00:35:15;;;;;;;;;;;21.50;54.00;;;;;;5052590;28;1324;-68
2020/12/31 00:37:40;;;;;;;;;;;21.50;54.10;;;;;;5034452;28;1306;-67
2020/12/31 00:40:06;;;;;;;;;;;21.40;54.00;;;;;;5052820;28;1305;-68
2020/12/31 00:42:31;;;;;;;;;;;21.40;54.10;;;;;;5035023;28;1339;-69
2020/12/31 00:44:57;;;;;;;;;;;21.40;54.10;;;;;;5034443;28;1135;-68
2020/12/31 00:47:22;;;;;;;;;;;21.50;54.10;;;;;;5051920;28;1373;-69
2020/12/31 00:49:48;;;;;;;;;;;21.40;54.10;;;;;;5052431;28;1159;-69
2020/12/31 00:52:13;;;;;;;;;;;21.40;54.20;;;;;;5052339;28;1953;-68
2020/12/31 00:54:39;;;;;;;;;;;21.40;54.20;;;;;;5034380;28;1431;-69
2020/12/31 00:57:04;;;;;;;;;;;21.40;54.20;;;;;;5050168;28;1311;-68
2020/12/31 00:59:30;;;;;;;;;;;21.40;54.30;;;;;;5052661;28;1056;-68
2020/12/31 01:01:55;;;;;;;;;;;21.40;54.30;;;;;;5051956;28;1363;-68
2020/12/31 01:04:21;;;;;;;;;;;21.40;54.30;;;;;;5051872;28;1343;-68
2020/12/31 01:06:46;;;;;;;;;;;21.40;54.30;;;;;;5052092;28;1349;-69
2020/12/31 01:09:12;;;;;;;;;;;21.40;54.30;;;;;;5052572;28;1260;-69
2020/12/31 01:11:37;;;;;;;;;;;21.40;54.40;;;;;;5033757;28;2055;-69
2020/12/31 01:14:03;;;;;;;;;;;21.30;54.30;;;;;;5033558;28;1973;-69
2020/12/31 01:16:29;;;;;;;;;;;21.30;54.30;;;;;;5034022;28;1384;-68
2020/12/31 01:18:54;;;;;;;;;;;21.30;54.40;;;;;;5051985;28;1377;-68
2020/12/31 01:21:20;;;;;;;;;;;21.30;55.00;;;;;;5034583;28;1517;-68
2020/12/31 01:23:45;;;;;;;;;;;21.30;54.40;;;;;;5051734;28;1310;-67
2020/12/31 01:26:11;;;;;;;;;;;21.30;54.40;;;;;;5051499;28;1304;-68
2020/12/31 01:28:36;;;;;;;;;;;21.30;54.40;;;;;;5052026;28;1284;-69
2020/12/31 01:31:05;;;;;;;;;;;21.30;54.40;;;;;;5051734;28;1292;-68
2020/12/31 01:33:31;;;;;;;;;;;21.30;54.50;;;;;;5033778;28;1914;-68
2020/12/31 01:35:56;;;;;;;;;;;21.30;54.50;;;;;;5051335;28;1296;-68
2020/12/31 01:38:22;;;;;;;;;;;21.30;54.50;;;;;;5052296;28;1445;-68
2020/12/31 01:40:49;;;;;;;;;;;21.30;54.50;;;;;;5034280;28;1396;-66
2020/12/31 01:43:15;;;;;;;;;;;21.20;54.50;;;;;;5051697;28;1363;-68
2020/12/31 01:45:40;;;;;;;;;;;21.20;54.50;;;;;;5051380;28;1281;-68
2020/12/31 01:48:06;;;;;;;;;;;21.20;54.50;;;;;;5051682;28;1285;-67
2020/12/31 01:50:31;;;;;;;;;;;21.20;54.60;;;;;;5034236;28;1410;-68
2020/12/31 01:52:57;;;;;;;;;;;21.20;54.60;;;;;;5033702;28;1911;-69
2020/12/31 01:55:22;;;;;;;;;;;21.20;54.60;;;;;;5051646;28;1181;-68
2020/12/31 01:57:48;;;;;;;;;;;21.20;54.60;;;;;;5051590;28;1303;-69
2020/12/31 02:00:13;;;;;;;;;;;21.20;54.60;;;;;;5051903;28;1335;-70
2020/12/31 02:02:38;;;;;;;;;;;21.20;54.60;;;;;;5052134;28;1302;-70
2020/12/31 02:05:04;;;;;;;;;;;21.20;54.60;;;;;;5051309;28;1331;-70
2020/12/31 02:07:29;;;;;;;;;;;21.20;54.70;;;;;;5051481;28;1380;-70
2020/12/31 02:09:55;;;;;;;;;;;21.20;54.70;;;;;;5051738;28;1296;-70
2020/12/31 02:12:20;;;;;;;;;;;21.10;54.70;;;;;;5051528;28;1898;-70
2020/12/31 02:14:46;;;;;;;;;;;21.10;54.70;;;;;;5051292;28;1283;-70
2020/12/31 02:17:12;;;;;;;;;;;21.10;54.70;;;;;;5051213;28;1312;-70
2020/12/31 02:19:37;;;;;;;;;;;21.10;54.70;;;;;;5051273;28;1283;-69
2020/12/31 02:22:03;;;;;;;;;;;21.10;54.70;;;;;;5051746;28;1417;-70
2020/12/31 02:24:28;;;;;;;;;;;21.10;54.70;;;;;;5053380;28;1324;-68
2020/12/31 02:26:54;;;;;;;;;;;21.10;54.70;;;;;;5055152;28;1453;-70
2020/12/31 02:29:20;;;;;;;;;;;21.20;54.70;;;;;;5054925;28;1329;-69
2020/12/31 02:31:45;;;;;;;;;;;21.20;54.60;;;;;;5055207;28;1899;-68
2020/12/31 02:34:11;;;;;;;;;;;21.20;54.60;;;;;;5054541;28;1311;-68
2020/12/31 02:36:37;;;;;;;;;;;21.20;54.60;;;;;;5036729;28;1343;-68
2020/12/31 02:39:06;;;;;;;;;;;21.20;54.50;;;;;;5036321;28;1365;-68
2020/12/31 02:41:32;;;;;;;;;;;21.20;54.50;;;;;;5055105;28;1266;-69
2020/12/31 02:43:57;;;;;;;;;;;21.20;54.40;;;;;;5054395;28;1272;-68
2020/12/31 02:46:23;;;;;;;;;;;21.30;54.40;;;;;;5054955;28;1363;-69
2020/12/31 02:48:48;;;;;;;;;;;21.30;54.40;;;;;;5054533;28;1301;-69
2020/12/31 02:51:14;;;;;;;;;;;21.40;54.30;;;;;;5044004;28;1656;-69
2020/12/31 02:53:39;;;;;;;;;;;21.40;54.10;;;;;;5051270;28;1906;-68
2020/12/31 02:56:09;;;;;;;;;;;21.50;54.00;;;;;;5054657;28;1300;-68
2020/12/31 02:58:34;;;;;;;;;;;21.60;53.90;;;;;;5036586;28;1349;-69
2020/12/31 03:01:00;;;;;;;;;;;21.70;53.70;;;;;;5051291;28;1284;-68
2020/12/31 03:03:25;;;;;;;;;;;21.70;53.50;;;;;;5053453;28;1311;-68
2020/12/31 03:05:51;;;;;;;;;;;21.80;53.30;;;;;;5052909;28;1277;-67
2020/12/31 03:08:17;;;;;;;;;;;21.90;53.20;;;;;;5054362;28;1295;-68
2020/12/31 03:10:42;;;;;;;;;;;22.00;53.00;;;;;;5054658;28;1327;-68
2020/12/31 03:13:08;;;;;;;;;;;22.10;52.90;;;;;;5054197;28;1894;-68
2020/12/31 03:15:33;;;;;;;;;;;22.10;52.80;;;;;;5035475;28;1443;-66
2020/12/31 03:17:59;;;;;;;;;;;22.10;52.60;;;;;;5047113;28;1372;-68
2020/12/31 03:20:24;;;;;;;;;;;22.20;52.50;;;;;;5048979;28;1420;-68
2020/12/31 03:22:50;;;;;;;;;;;22.20;52.40;;;;;;5051011;28;1510;-68
2020/12/31 03:25:15;;;;;;;;;;;22.30;52.30;;;;;;5045335;28;1252;-68
2020/12/31 03:27:40;;;;;;;;;;;22.30;52.20;;;;;;5046542;28;1387;-69
2020/12/31 03:30:06;;;;;;;;;;;22.30;52.20;;;;;;5044338;28;1232;-68
2020/12/31 03:32:31;;;;;;;;;;;22.40;52.20;;;;;;5050686;28;1971;-68
2020/12/31 03:34:57;;;;;;;;;;;22.40;52.20;;;;;;5043144;28;1291;-70
2020/12/31 03:37:26;;;;;;;;;;;22.40;52.00;;;;;;5025734;28;1286;-70
2020/12/31 03:39:51;;;;;;;;;;;22.40;52.00;;;;;;5045760;28;1379;-69
2020/12/31 03:42:17;;;;;;;;;;;22.50;52.00;;;;;;5048450;28;1267;-68
2020/12/31 03:44:42;;;;;;;;;;;22.50;51.90;;;;;;5026456;28;1247;-69
2020/12/31 03:47:08;;;;;;;;;;;22.50;51.80;;;;;;5052592;28;1377;-68
2020/12/31 03:49:33;;;;;;;;;;;22.50;51.80;;;;;;5051037;28;1281;-66
2020/12/31 03:51:59;;;;;;;;;;;22.60;51.80;;;;;;5048683;28;1902;-69
2020/12/31 03:54:24;;;;;;;;;;;22.60;51.70;;;;;;5051366;28;1297;-69
2020/12/31 03:56:50;;;;;;;;;;;22.60;51.70;;;;;;5042798;28;1364;-68
2020/12/31 03:59:15;;;;;;;;;;;22.60;51.60;;;;;;5045459;28;1196;-68
2020/12/31 04:01:41;;;;;;;;;;;22.60;51.60;;;;;;5053126;28;1673;-67
2020/12/31 04:04:06;;;;;;;;;;;22.70;51.60;;;;;;5053556;28;1368;-68
2020/12/31 04:06:32;;;;;;;;;;;22.70;51.60;;;;;;5053056;28;1384;-66
2020/12/31 04:08:57;;;;;;;;;;;22.70;51.60;;;;;;5053534;28;1295;-68
2020/12/31 04:11:23;;;;;;;;;;;22.70;51.60;;;;;;5052967;28;1099;-68
2020/12/31 04:13:48;;;;;;;;;;;22.70;51.50;;;;;;5052758;28;1905;-68
2020/12/31 04:16:14;;;;;;;;;;;22.70;51.50;;;;;;5052760;28;1304;-69
2020/12/31 04:18:39;;;;;;;;;;;22.80;51.50;;;;;;5035266;28;1284;-68
2020/12/31 04:21:05;;;;;;;;;;;22.80;51.50;;;;;;5052426;28;1467;-68
2020/12/31 04:23:30;;;;;;;;;;;22.80;51.40;;;;;;5035131;28;1348;-68
2020/12/31 04:25:56;;;;;;;;;;;22.80;51.40;;;;;;5052260;28;1394;-68
2020/12/31 04:28:21;;;;;;;;;;;22.80;51.40;;;;;;5053086;28;1371;-68
2020/12/31 04:30:47;;;;;;;;;;;22.80;51.40;;;;;;5052810;28;1304;-68
2020/12/31 04:33:13;;;;;;;;;;;22.80;51.40;;;;;;5052365;28;1902;-68
2020/12/31 04:35:38;;;;;;;;;;;22.80;51.30;;;;;;5034604;28;1400;-68
2020/12/31 04:38:04;;;;;;;;;;;22.90;51.40;;;;;;5034372;28;1376;-68
2020/12/31 04:40:30;;;;;;;;;;;22.90;51.40;;;;;;5035026;28;1421;-68
2020/12/31 04:42:56;;;;;;;;;;;22.90;51.30;;;;;;5035023;28;1330;-68
2020/12/31 04:45:21;;;;;;;;;;;22.90;51.30;;;;;;5052703;28;1341;-68
2020/12/31 04:47:54;;;;;;;;;;;22.90;51.30;;;;;;5034175;28;1211;-68
2020/12/31 04:50:20;;;;;;;;;;;22.90;51.30;;;;;;5034968;28;1353;-68
2020/12/31 04:52:45;;;;;;;;;;;22.90;51.30;;;;;;5034598;28;1902;-68
2020/12/31 04:55:11;;;;;;;;;;;22.90;51.30;;;;;;5034178;28;1312;-68
2020/12/31 04:57:36;;;;;;;;;;;22.90;51.30;;;;;;5034550;28;1376;-68
2020/12/31 05:00:02;;;;;;;;;;;22.90;51.30;;;;;;5052324;28;1120;-68
2020/12/31 05:02:27;;;;;;;;;;;22.90;51.30;;;;;;5052119;28;1288;-68
2020/12/31 05:04:53;;;;;;;;;;;23.00;51.30;;;;;;5051994;28;1457;-67
2020/12/31 05:07:18;;;;;;;;;;;23.00;51.30;;;;;;5051759;28;1378;-68
2020/12/31 05:09:44;;;;;;;;;;;22.90;51.20;;;;;;5018151;28;1534;-68
2020/12/31 05:12:09;;;;;;;;;;;23.00;51.20;;;;;;5052354;28;1942;-68
2020/12/31 05:14:35;;;;;;;;;;;23.00;51.20;;;;;;5051649;28;1123;-68
2020/12/31 05:17:10;;;;;;;;;;;23.00;51.20;;;;;;5052176;28;1329;-68
2020/12/31 05:19:36;;;;;;;;;;;23.00;51.20;;;;;;5034199;28;1337;-68
2020/12/31 05:22:14;;;;;;;;;;;23.00;51.20;;;;;;5034522;28;1302;-68
2020/12/31 05:24:40;;;;;;;;;;;23.00;51.20;;;;;;5051834;28;1303;-68
2020/12/31 05:27:18;;;;;;;;;;;23.00;51.20;;;;;;5033984;28;1314;-68
2020/12/31 05:29:56;;;;;;;;;;;23.00;51.20;;;;;;5017047;28;1388;-68
2020/12/31 05:32:22;;;;;;;;;;;23.00;51.20;;;;;;5052377;28;1971;-68
2020/12/31 05:34:47;;;;;;;;;;;23.00;51.30;;;;;;5033958;28;1290;-67
2020/12/31 05:37:14;;;;;;;;;;;23.00;51.30;;;;;;5034873;28;2268;-68
2020/12/31 05:39:58;;;;;;;;;;;23.00;51.40;;;;;;5033839;28;1394;-68
2020/12/31 05:42:24;;;;;;;;;;;23.00;52.00;;;;;;5051880;28;1276;-68
2020/12/31 05:44:58;;;;;;;;;;;22.90;51.40;;;;;;5033812;28;1164;-68
2020/12/31 05:47:24;;;;;;;;;;;22.90;51.40;;;;;;5052039;28;1320;-68
2020/12/31 05:49:49;;;;;;;;;;;22.90;51.50;;;;;;5051794;28;1128;-69
2020/12/31 05:52:31;;;;;;;;;;;22.90;51.50;;;;;;5051846;28;1961;-68
2020/12/31 05:54:56;;;;;;;;;;;22.80;51.60;;;;;;5033991;28;1312;-68
2020/12/31 05:57:22;;;;;;;;;;;22.80;51.60;;;;;;5033574;28;1308;-68
2020/12/31 05:59:47;;;;;;;;;;;22.80;51.70;;;;;;5036904;28;1096;-68
2020/12/31 06:02:13;;;;;;;;;;;22.80;51.70;;;;;;5037817;28;1406;-69
2020/12/31 06:04:45;;;;;;;;;;;22.80;51.80;;;;;;5053771;28;1361;-68
2020/12/31 06:07:15;;;;;;;;;;;22.70;51.80;;;;;;5037505;28;1308;-69
2020/12/31 06:09:41;;;;;;;;;;;22.70;51.90;;;;;;5037589;28;1320;-68
2020/12/31 06:12:08;;;;;;;;;;;22.70;51.90;;;;;;5037316;28;1967;-68
2020/12/31 06:14:33;;;;;;;;;;;22.70;52.00;;;;;;5054791;28;1174;-69
2020/12/31 06:17:01;;;;;;;;;;;22.60;52.60;;;;;;5055433;28;1388;-69
2020/12/31 06:19:26;;;;;;;;;;;22.60;52.00;;;;;;5055490;28;1318;-67
2020/12/31 06:21:57;;;;;;;;;;;22.60;52.10;;;;;;5055494;28;1421;-68
2020/12/31 06:24:22;;;;;;;;;;;22.60;52.10;;;;;;5054682;28;1282;-68
2020/12/31 06:26:48;;;;;;;;;;;22.60;52.20;;;;;;5036475;28;1241;-66
2020/12/31 06:29:13;;;;;;;;;;;22.60;52.20;;;;;;5037450;28;1407;-68
2020/12/31 06:31:39;;;;;;;;;;;22.50;52.20;;;;;;5037640;28;1280;-68
2020/12/31 06:34:04;;;;;;;;;;;22.50;52.20;;;;;;5054617;28;1965;-68
2020/12/31 06:36:34;;;;;;;;;;;22.50;52.30;;;;;;5036758;28;1313;-68
2020/12/31 06:38:59;;;;;;;;;;;22.50;52.30;;;;;;5054596;28;1248;-68
2020/12/31 06:41:31;;;;;;;;;;;22.50;52.40;;;;;;5054978;28;1249;-69
2020/12/31 06:44:17;;;;;;;;;;;22.50;52.40;;;;;;5054640;28;1108;-68
2020/12/31 06:46:42;;;;;;;;;;;22.40;52.40;;;;;;5053894;28;1348;-67
2020/12/31 06:49:08;;;;;;;;;;;22.40;52.50;;;;;;5055038;28;1422;-68
2020/12/31 06:51:34;;;;;;;;;;;22.40;52.50;;;;;;5054714;28;1174;-68
2020/12/31 06:53:59;;;;;;;;;;;22.40;52.60;;;;;;5053666;28;1910;-68
2020/12/31 06:56:43;;;;;;;;;;;22.40;52.60;;;;;;5053825;28;1378;-66
2020/12/31 06:59:24;;;;;;;;;;;22.40;52.70;;;;;;5043624;28;1100;-68
2020/12/31 07:01:50;;;;;;;;;;;22.30;52.70;;;;;;5036816;28;1036;-69
2020/12/31 07:04:25;;;;;;;;;;;22.30;52.70;;;;;;5053815;28;1033;-68
2020/12/31 07:06:50;;;;;;;;;;;22.30;52.80;;;;;;5054285;28;1380;-69
2020/12/31 07:09:29;;;;;;;;;;;22.30;52.80;;;;;;5054441;28;1304;-68
2020/12/31 07:12:05;;;;;;;;;;;22.30;52.80;;;;;;5036324;28;1971;-68
2020/12/31 07:14:30;;;;;;;;;;;22.20;52.80;;;;;;5036164;28;1123;-68
2020/12/31 07:16:57;;;;;;;;;;;22.20;52.90;;;;;;5053741;28;1310;-68
2020/12/31 07:19:28;;;;;;;;;;;22.20;52.90;;;;;;5054272;28;1104;-68
2020/12/31 07:21:53;;;;;;;;;;;22.20;53.00;;;;;;5054448;28;1148;-68
2020/12/31 07:24:23;;;;;;;;;;;22.10;52.90;;;;;;5053648;28;1128;-69
2020/12/31 07:26:49;;;;;;;;;;;22.20;53.00;;;;;;5053370;28;1386;-69
2020/12/31 07:29:19;;;;;;;;;;;22.10;53.10;;;;;;5053935;28;1366;-69
2020/12/31 07:31:45;;;;;;;;;;;22.10;53.10;;;;;;5054228;28;1266;-68
2020/12/31 07:34:26;;;;;;;;;;;22.10;53.10;;;;;;5053286;28;1969;-68
2020/12/31 07:36:55;;;;;;;;;;;22.10;53.20;;;;;;5035507;28;1366;-68
2020/12/31 07:39:21;;;;;;;;;;;22.10;53.20;;;;;;5053415;28;1214;-69
2020/12/31 07:41:46;;;;;;;;;;;22.10;53.30;;;;;;5035737;28;1076;-67
2020/12/31 07:44:11;;;;;;;;;;;22.00;53.30;;;;;;5053268;28;1337;-68
2020/12/31 07:46:37;;;;;;;;;;;22.00;53.30;;;;;;5053183;28;1373;-69
2020/12/31 07:49:08;;;;;;;;;;;22.00;53.30;;;;;;5035654;28;1249;-67
2020/12/31 07:51:33;;;;;;;;;;;22.00;53.30;;;;;;5012264;28;1738;-67
2020/12/31 07:53:59;;;;;;;;;;;22.00;53.40;;;;;;5033555;28;1957;-68
2020/12/31 07:56:24;;;;;;;;;;;21.90;53.30;;;;;;5052649;28;1392;-68
2020/12/31 07:58:50;;;;;;;;;;;21.90;53.40;;;;;;5033414;28;1354;-67
2020/12/31 08:01:15;;;;;;;;;;;21.90;53.40;;;;;;5051480;28;1301;-68
2020/12/31 08:03:40;;;;;;;;;;;21.90;53.50;;;;;;5033148;28;1592;-68
2020/12/31 08:06:07;;;;;;;;;;;21.90;54.10;;;;;;5050433;28;1263;-67
2020/12/31 08:08:34;;;;;;;;;;;21.90;53.50;;;;;;5033446;28;1377;-68
2020/12/31 08:11:06;;;;;;;;;;;21.90;53.60;;;;;;5050769;28;1252;-68
2020/12/31 08:13:31;;;;;;;;;;;21.90;53.50;;;;;;5033430;28;1894;-68
2020/12/31 08:15:57;;;;;;;;;;;21.90;53.50;;;;;;5052047;28;1372;-68
2020/12/31 08:18:22;;;;;;;;;;;21.90;53.40;;;;;;5053127;28;1345;-68
2020/12/31 08:20:48;;;;;;;;;;;22.00;53.40;;;;;;5034880;28;1285;-68
2020/12/31 08:23:15;;;;;;;;;;;22.10;53.30;;;;;;5035058;28;1495;-68
2020/12/31 08:25:41;;;;;;;;;;;22.10;53.20;;;;;;5034404;28;1365;-67
2020/12/31 08:28:06;;;;;;;;;;;22.20;53.00;;;;;;5052097;28;1479;-67
2020/12/31 08:30:32;;;;;;;;;;;22.30;52.90;;;;;;5049737;28;1913;-68
2020/12/31 08:32:58;;;;;;;;;;;22.30;52.80;;;;;;5034641;28;1906;-67
2020/12/31 08:35:27;;;;;;;;;;;22.30;52.60;;;;;;5052044;28;1193;-68
2020/12/31 08:37:58;;;;;;;;;;;22.40;52.50;;;;;;5051744;28;1420;-68
2020/12/31 08:40:23;;;;;;;;;;;22.40;52.40;;;;;;5044855;28;1946;-67
2020/12/31 08:42:53;;;;;;;;;;;22.50;52.30;;;;;;5035111;28;1199;-67
2020/12/31 08:45:28;;;;;;;;;;;22.50;52.20;;;;;;5038398;28;1046;-66
2020/12/31 08:48:09;;;;;;;;;;;22.50;52.10;;;;;;5034652;28;1301;-67
2020/12/31 08:50:35;;;;;;;;;;;22.60;52.10;;;;;;5046948;28;1322;-67
2020/12/31 08:53:01;;;;;;;;;;;22.60;52.10;;;;;;5025450;28;1898;-68
2020/12/31 08:55:26;;;;;;;;;;;22.50;52.00;;;;;;5050544;28;1280;-68
2020/12/31 08:58:09;;;;;;;;;;;22.60;52.10;;;;;;5050706;28;1264;-69
2020/12/31 09:00:34;;;;;;;;;;;22.60;52.10;;;;;;5020904;28;1305;-69
2020/12/31 09:03:00;;;;;;;;;;;22.60;52.10;;;;;;5051123;28;976;-70
2020/12/31 09:05:25;;;;;;;;;;;22.50;52.10;;;;;;5050136;28;1337;-69
2020/12/31 09:07:51;;;;;;;;;;;22.50;52.10;;;;;;5050891;28;1296;-68
2020/12/31 09:10:17;;;;;;;;;;;22.50;52.10;;;;;;5033300;28;1351;-69
2020/12/31 09:12:43;;;;;;;;;;;22.50;52.20;;;;;;5033030;28;1902;-70
2020/12/31 09:15:15;;;;;;;;;;;22.50;52.20;;;;;;5051802;28;1521;-70
2020/12/31 09:17:41;;;;;;;;;;;22.50;52.20;;;;;;5025677;28;1327;-70
2020/12/31 09:20:06;;;;;;;;;;;22.50;52.20;;;;;;5052193;28;1402;-69
2020/12/31 09:22:32;;;;;;;;;;;22.50;52.20;;;;;;5051271;28;1143;-69
2020/12/31 09:24:57;;;;;;;;;;;22.50;52.30;;;;;;5050398;28;1055;-67
2020/12/31 09:27:23;;;;;;;;;;;22.50;52.30;;;;;;5049910;28;1351;-69
2020/12/31 09:29:58;;;;;;;;;;;22.40;52.30;;;;;;5033640;28;1300;-69
2020/12/31 09:32:24;;;;;;;;;;;22.40;52.40;;;;;;5033343;28;1985;-69
2020/12/31 09:34:49;;;;;;;;;;;22.40;52.40;;;;;;5036414;28;1453;-69
2020/12/31 09:37:16;;;;;;;;;;;22.40;53.00;;;;;;5053862;28;1339;-70
2020/12/31 09:39:42;;;;;;;;;;;22.40;52.50;;;;;;5031970;28;1208;-69
2020/12/31 09:42:07;;;;;;;;;;;22.40;52.50;;;;;;5036942;28;1312;-68
2020/12/31 09:44:33;;;;;;;;;;;22.30;52.50;;;;;;5054160;28;1288;-69
2020/12/31 09:46:58;;;;;;;;;;;22.30;52.60;;;;;;5054406;28;1369;-69
2020/12/31 09:49:24;;;;;;;;;;;22.30;52.60;;;;;;5054313;28;1347;-69
2020/12/31 09:51:49;;;;;;;;;;;22.30;52.60;;;;;;5054503;28;1237;-69
2020/12/31 09:54:15;;;;;;;;;;;22.30;52.70;;;;;;5054544;28;1906;-69
2020/12/31 09:56:40;;;;;;;;;;;22.30;52.70;;;;;;5054703;28;1247;-69
2020/12/31 09:59:06;;;;;;;;;;;22.20;52.70;;;;;;5054131;28;1104;-70
2020/12/31 10:01:33;;;;;;;;;;;22.30;52.80;;;;;;5055371;28;1343;-69
2020/12/31 10:03:58;;;;;;;;;;;22.30;52.80;;;;;;5037697;28;1284;-69
2020/12/31 10:06:23;;;;;;;;;;;22.20;52.70;;;;;;5053778;28;1315;-66
2020/12/31 10:08:49;;;;;;;;;;;22.30;52.80;;;;;;5053894;28;1328;-67
2020/12/31 10:11:15;;;;;;;;;;;22.30;52.70;;;;;;5054331;28;1340;-69
2020/12/31 10:13:40;;;;;;;;;;;22.30;52.70;;;;;;5053569;28;1894;-68
2020/12/31 10:16:06;;;;;;;;;;;22.30;52.60;;;;;;5054756;28;1302;-69
2020/12/31 10:18:31;;;;;;;;;;;22.40;52.60;;;;;;5055113;28;1045;-66
2020/12/31 10:20:56;;;;;;;;;;;22.40;52.50;;;;;;5053855;28;1351;-66
2020/12/31 10:23:22;;;;;;;;;;;22.40;52.50;;;;;;5054161;28;1253;-64
2020/12/31 10:25:48;;;;;;;;;;;22.40;52.40;;;;;;5053417;28;1345;-67
2020/12/31 10:28:14;;;;;;;;;;;22.40;52.40;;;;;;5053375;28;1312;-67
2020/12/31 10:30:39;;;;;;;;;;;22.40;52.40;;;;;;5054330;28;1319;-69
2020/12/31 10:33:04;;;;;;;;;;;22.40;52.30;;;;;;5054857;28;1973;-69
2020/12/31 10:35:30;;;;;;;;;;;22.40;52.30;;;;;;5054669;28;1375;-68
2020/12/31 10:37:56;;;;;;;;;;;22.40;52.30;;;;;;5055088;28;1275;-68
2020/12/31 10:40:21;;;;;;;;;;;22.40;52.30;;;;;;5054851;28;1287;-68
2020/12/31 10:42:46;;;;;;;;;;;22.40;52.30;;;;;;5054688;28;1370;-68
2020/12/31 10:45:12;;;;;;;;;;;22.40;52.30;;;;;;5053580;28;1286;-69
2020/12/31 10:47:37;;;;;;;;;;;22.40;52.30;;;;;;5054832;28;1189;-69
2020/12/31 10:50:03;;;;;;;;;;;22.40;52.40;;;;;;5054523;28;1308;-69
2020/12/31 10:52:28;;;;;;;;;;;22.40;52.30;;;;;;5054397;28;1898;-69
2020/12/31 10:54:54;;;;;;;;;;;22.40;52.40;;;;;;5054244;28;1346;-69
2020/12/31 10:57:19;;;;;;;;;;;22.40;52.40;;;;;;5054032;28;1299;-69
2020/12/31 10:59:45;;;;;;;;;;;22.40;52.40;;;;;;5054137;28;1347;-68
2020/12/31 11:02:10;;;;;;;;;;;22.40;52.40;;;;;;5036352;28;1279;-69
2020/12/31 11:04:36;;;;;;;;;;;22.40;52.50;;;;;;5054149;28;1283;-69
2020/12/31 11:07:01;;;;;;;;;;;22.30;52.50;;;;;;5054375;28;1355;-68
2020/12/31 11:09:29;;;;;;;;;;;22.30;52.50;;;;;;5054041;28;1307;-68
2020/12/31 11:11:55;;;;;;;;;;;22.30;52.50;;;;;;5054245;28;1032;-69
2020/12/31 11:14:20;;;;;;;;;;;22.30;52.60;;;;;;5053471;28;1901;-69
2020/12/31 11:16:49;;;;;;;;;;;22.30;52.70;;;;;;5041592;28;1244;-68
2020/12/31 11:19:15;;;;;;;;;;;22.30;52.70;;;;;;5035661;28;1260;-68
2020/12/31 11:21:40;;;;;;;;;;;22.20;52.70;;;;;;5053230;28;1134;-68
2020/12/31 11:24:06;;;;;;;;;;;22.20;52.70;;;;;;5051824;28;1262;-68
2020/12/31 11:26:32;;;;;;;;;;;22.30;52.80;;;;;;5052407;28;1346;-68
2020/12/31 11:28:57;;;;;;;;;;;22.30;52.70;;;;;;5053691;28;1312;-68
2020/12/31 11:31:24;;;;;;;;;;;22.30;52.70;;;;;;5052845;28;1354;-69
2020/12/31 11:33:49;;;;;;;;;;;22.30;52.60;;;;;;5049498;28;1955;-68
2020/12/31 11:36:15;;;;;;;;;;;22.30;52.60;;;;;;5034418;28;1362;-69
2020/12/31 11:38:40;;;;;;;;;;;22.30;52.50;;;;;;5046333;28;1892;-68
2020/12/31 11:41:06;;;;;;;;;;;22.30;52.50;;;;;;5052891;28;1389;-68
2020/12/31 11:43:32;;;;;;;;;;;22.40;52.60;;;;;;5050518;28;1111;-67
2020/12/31 11:45:58;;;;;;;;;;;22.30;52.50;;;;;;5033515;28;1283;-67
2020/12/31 11:48:23;;;;;;;;;;;22.40;52.50;;;;;;5052245;28;1319;-68
2020/12/31 11:50:51;;;;;;;;;;;22.40;52.50;;;;;;5034490;28;1678;-68
2020/12/31 11:53:20;;;;;;;;;;;22.30;52.80;;;;;;5052183;28;1963;-69
2020/12/31 11:55:48;;;;;;;;;;;22.40;52.50;;;;;;5033970;28;1284;-68
2020/12/31 11:58:14;;;;;;;;;;;22.40;52.50;;;;;;5051653;28;1288;-68
2020/12/31 12:00:39;;;;;;;;;;;22.40;52.50;;;;;;5052033;28;1356;-68
2020/12/31 12:03:05;;;;;;;;;;;22.40;52.40;;;;;;5052280;28;1256;-69
2020/12/31 12:05:30;;;;;;;;;;;22.40;52.40;;;;;;5052234;28;1323;-68
2020/12/31 12:07:56;;;;;;;;;;;22.40;52.40;;;;;;5052131;28;1318;-67
2020/12/31 12:10:21;;;;;;;;;;;22.40;52.40;;;;;;5052241;28;1324;-68
2020/12/31 12:12:47;;;;;;;;;;;22.40;52.30;;;;;;5034017;28;1902;-69
2020/12/31 12:15:12;;;;;;;;;;;22.40;52.30;;;;;;5053024;28;1346;-68
2020/12/31 12:17:39;;;;;;;;;;;22.40;52.30;;;;;;5052550;28;1343;-68
2020/12/31 12:20:05;;;;;;;;;;;22.40;52.30;;;;;;5051480;28;1357;-69
2020/12/31 12:22:30;;;;;;;;;;;22.40;53.00;;;;;;5048290;28;1911;-68
2020/12/31 12:24:56;;;;;;;;;;;22.40;52.40;;;;;;5042676;28;1205;-68
2020/12/31 12:27:21;;;;;;;;;;;22.40;52.40;;;;;;5052065;28;1287;-68
2020/12/31 12:29:47;;;;;;;;;;;22.40;52.40;;;;;;5052477;28;1319;-68
2020/12/31 12:32:12;;;;;;;;;;;22.40;52.50;;;;;;5051659;28;1910;-68
2020/12/31 12:34:38;;;;;;;;;;;22.40;52.50;;;;;;5051112;28;1615;-68
2020/12/31 12:37:04;;;;;;;;;;;22.30;52.50;;;;;;5033666;28;1349;-68
2020/12/31 12:39:29;;;;;;;;;;;22.40;52.60;;;;;;5052325;28;1068;-69
2020/12/31 12:41:58;;;;;;;;;;;22.30;52.50;;;;;;5033456;28;1286;-68
2020/12/31 12:44:24;;;;;;;;;;;22.30;52.60;;;;;;5051375;28;1268;-68
2020/12/31 12:46:49;;;;;;;;;;;22.30;52.60;;;;;;5033343;28;1331;-68
2020/12/31 12:49:15;;;;;;;;;;;22.30;52.70;;;;;;5050852;28;1339;-68
2020/12/31 12:51:40;;;;;;;;;;;22.30;52.70;;;;;;5026735;28;1975;-67
2020/12/31 12:54:06;;;;;;;;;;;22.30;52.80;;;;;;5051022;28;1957;-68
2020/12/31 12:56:32;;;;;;;;;;;22.20;52.70;;;;;;5032455;28;1886;-67
2020/12/31 12:58:57;;;;;;;;;;;22.20;52.80;;;;;;5052435;28;1332;-67
2020/12/31 13:01:23;;;;;;;;;;;22.20;52.80;;;;;;5052143;28;1323;-66
2020/12/31 13:03:48;;;;;;;;;;;22.20;52.80;;;;;;5051502;28;1331;-67
2020/12/31 13:06:14;;;;;;;;;;;22.20;52.90;;;;;;5050962;28;1408;-67
2020/12/31 13:08:40;;;;;;;;;;;22.20;52.90;;;;;;5052231;28;1100;-67
2020/12/31 13:11:05;;;;;;;;;;;22.10;52.90;;;;;;5051561;28;1367;-68
2020/12/31 13:13:31;;;;;;;;;;;22.10;52.90;;;;;;5052036;28;1906;-68
2020/12/31 13:15:57;;;;;;;;;;;22.10;53.00;;;;;;5051429;28;1310;-67
2020/12/31 13:18:22;;;;;;;;;;;22.10;53.10;;;;;;5046826;28;2195;-67
2020/12/31 13:20:48;;;;;;;;;;;22.10;53.10;;;;;;5048635;28;1086;-67
2020/12/31 13:23:13;;;;;;;;;;;22.10;53.10;;;;;;5047771;28;1449;-63
2020/12/31 13:25:39;;;;;;;;;;;22.10;53.10;;;;;;5039631;28;1021;-66
2020/12/31 13:28:05;;;;;;;;;;;22.00;53.10;;;;;;5050065;28;1212;-67
2020/12/31 13:30:30;;;;;;;;;;;22.00;53.20;;;;;;5047271;28;1362;-66
2020/12/31 13:32:56;;;;;;;;;;;22.00;53.20;;;;;;5028805;28;1910;-66
2020/12/31 13:35:21;;;;;;;;;;;22.00;53.20;;;;;;5042543;28;1230;-65
2020/12/31 13:37:47;;;;;;;;;;;22.00;53.30;;;;;;5050874;28;1469;-67
2020/12/31 13:40:13;;;;;;;;;;;22.00;53.30;;;;;;5032982;28;1211;-67
2020/12/31 13:42:38;;;;;;;;;;;21.90;53.30;;;;;;5050872;28;1304;-66
2020/12/31 13:45:04;;;;;;;;;;;21.90;53.30;;;;;;5032059;28;1320;-66
2020/12/31 13:47:29;;;;;;;;;;;21.90;53.40;;;;;;5032171;28;1770;-66
2020/12/31 13:49:55;;;;;;;;;;;21.90;53.40;;;;;;5033085;28;1183;-65
2020/12/31 13:52:20;;;;;;;;;;;21.90;53.50;;;;;;5037811;28;1902;-66
2020/12/31 13:54:46;;;;;;;;;;;21.90;53.50;;;;;;5030984;28;1192;-66
2020/12/31 13:57:12;;;;;;;;;;;21.80;53.40;;;;;;5050764;28;1360;-66
2020/12/31 13:59:37;;;;;;;;;;;21.80;53.50;;;;;;5043613;28;1150;-66
2020/12/31 14:02:03;;;;;;;;;;;21.80;53.50;;;;;;5050166;28;1323;-65
2020/12/31 14:04:28;;;;;;;;;;;21.80;53.50;;;;;;5049789;28;1203;-66
2020/12/31 14:06:54;;;;;;;;;;;21.80;53.50;;;;;;5051383;28;1264;-64
2020/12/31 14:09:19;;;;;;;;;;;21.80;53.60;;;;;;5033689;28;1319;-66
2020/12/31 14:11:50;;;;;;;;;;;21.80;53.60;;;;;;5050629;28;1268;-66
2020/12/31 14:14:15;;;;;;;;;;;21.80;53.70;;;;;;5050421;28;1961;-66
2020/12/31 14:16:41;;;;;;;;;;;21.80;53.60;;;;;;5051460;28;1370;-67
2020/12/31 14:19:06;;;;;;;;;;;21.70;53.70;;;;;;5051682;28;1017;-68
2020/12/31 14:21:32;;;;;;;;;;;21.70;53.60;;;;;;5053027;28;1325;-69
2020/12/31 14:23:57;;;;;;;;;;;21.70;53.70;;;;;;5052539;28;1296;-67
2020/12/31 14:26:23;;;;;;;;;;;21.70;53.70;;;;;;5052863;28;1339;-68